Pago Pago, AS

10:27 PM SST on September 01, 2014 (GMT -1100)
Kona International At Keahole | Change Station
CLOSE
Current Station
Airport
Location: Keahole Point,
Elevation: 43 ft
Nearby Weather Stations

Elev 43 ft 19.74 °N, 156.05 °W | Updated 22 minutes ago

Scattered Clouds
Scattered Clouds
81 °F
Feels Like 85 °F
N
0
Wind Variable Wind from North

Today
High -- | Low -- °F
--% Chance of Precip.
Yesterday
High -- | Low -- °F
Precip. -- in
6:27 AM 6:18 PM
Waxing Crescent, 49% visible
Pressure 30.01 in
Visibility 10.0 miles
Clouds Scattered Clouds 1800 ft
Heat Index 85 °F
Dew Point 73 °F
Humidity 79%
Rainfall 0.00 in
Snow Depth Not available.
UV 0 out of 12
Pollen Not available.
Air Quality Not available.
Flu Activity Not available.
SPECI PHKO 020905Z AUTO 00000KT 10SM SCT018 27/23 A3001 RMK AO2 TSNO $

More Conditions Fewer Conditions

Pressure 30.01 in
Visibility 10.0 miles
Clouds Scattered Clouds 1800 ft
Heat Index 85 °F
Dew Point 73 °F
Humidity 79%
Rainfall 0.00 in
Snow Depth Not available.
UV 0 out of 12
Pollen Not available.
Air Quality Not available.
Flu Activity Not available.
SPECI PHKO 020905Z AUTO 00000KT 10SM SCT018 27/23 A3001 RMK AO2 TSNO $

More Conditions Fewer Conditions

10-Day Weather Forecast

Almanac

Astronomy

Sep. 01, 2014 Rise Set
Actual Time 6:27 AM SST 6:18 PM SST
Civil Twilight 6:06 AM SST 6:39 PM SST
Nautical Twilight 5:41 AM SST 7:04 PM SST
Astronomical Twilight 5:16 AM SST 7:29 PM SST
Moon 11:27 AM SST (9/1) No Moon Set
Length of Visible Light 12h 33m
Length of Day
11h 50m
Tomorrow will be 0m 44s longer.
Waxing Crescent, 49% of the Moon is Illuminated
Sep 2
Waxing Crescent
Sep 2
First Quarter
Sep 8
Full
Sep 15
Last Quarter
Sep 24
New

Community

WunderPhotos

Upload Photos

1,749,587 photos uploaded!

WunderBlogs® & News

Nearby

Snow Depth

Station Depth Elevation
No new snow has been reported.

Earthquake Activity

City Distance Mag. Time & Date
No recent earthquake activity has been reported nearby.
Minimum magnitude displayed is 2.5.

Coastal Water Temperatures

Place Temperature
No Stations Reporting

Nearby Weather Stations